sensor_id;sensor_type;location;lat;lon;timestamp;temperature;humidity
48454;DHT22;34261;55.678;12.464;2022-08-03T00:00:38;19.50;99.90
48454;DHT22;34261;55.678;12.464;2022-08-03T00:03:04;19.50;99.90
48454;DHT22;34261;55.678;12.464;2022-08-03T00:05:30;19.50;99.90
48454;DHT22;34261;55.678;12.464;2022-08-03T00:07:58;19.50;99.90
48454;DHT22;34261;55.678;12.464;2022-08-03T00:10:23;19.50;99.90
48454;DHT22;34261;55.678;12.464;2022-08-03T00:12:49;19.50;99.90
48454;DHT22;34261;55.678;12.464;2022-08-03T00:15:15;19.50;99.90
48454;DHT22;34261;55.678;12.464;2022-08-03T00:17:41;19.50;99.90
48454;DHT22;34261;55.678;12.464;2022-08-03T00:20:07;19.50;99.90
48454;DHT22;34261;55.678;12.464;2022-08-03T00:22:34;19.50;99.90
48454;DHT22;34261;55.678;12.464;2022-08-03T00:25:00;19.50;99.90
48454;DHT22;34261;55.678;12.464;2022-08-03T00:27:25;19.50;99.90
48454;DHT22;34261;55.678;12.464;2022-08-03T00:29:51;19.50;99.90
48454;DHT22;34261;55.678;12.464;2022-08-03T00:32:16;19.50;99.90
48454;DHT22;34261;55.678;12.464;2022-08-03T00:34:42;19.40;99.90
48454;DHT22;34261;55.678;12.464;2022-08-03T00:37:08;19.50;99.90
48454;DHT22;34261;55.678;12.464;2022-08-03T00:39:33;19.40;99.90
48454;DHT22;34261;55.678;12.464;2022-08-03T00:42:03;19.40;99.90
48454;DHT22;34261;55.678;12.464;2022-08-03T00:44:29;19.40;99.90
48454;DHT22;34261;55.678;12.464;2022-08-03T00:46:55;19.40;99.90
48454;DHT22;34261;55.678;12.464;2022-08-03T00:49:20;19.30;99.90
48454;DHT22;34261;55.678;12.464;2022-08-03T00:51:46;19.30;99.90
48454;DHT22;34261;55.678;12.464;2022-08-03T00:54:13;19.40;99.90
48454;DHT22;34261;55.678;12.464;2022-08-03T00:56:40;19.40;99.90
48454;DHT22;34261;55.678;12.464;2022-08-03T00:59:09;19.40;99.90
48454;DHT22;34261;55.678;12.464;2022-08-03T01:01:35;19.40;99.90
48454;DHT22;34261;55.678;12.464;2022-08-03T01:04:00;19.40;99.90
48454;DHT22;34261;55.678;12.464;2022-08-03T01:06:48;19.40;99.90
48454;DHT22;34261;55.678;12.464;2022-08-03T01:09:30;19.40;99.90
48454;DHT22;34261;55.678;12.464;2022-08-03T01:14:50;19.50;99.90
48454;DHT22;34261;55.678;12.464;2022-08-03T01:20:17;19.50;99.90
48454;DHT22;34261;55.678;12.464;2022-08-03T01:23:21;19.50;99.90
48454;DHT22;34261;55.678;12.464;2022-08-03T01:32:23;19.50;99.90
48454;DHT22;34261;55.678;12.464;2022-08-03T01:35:09;19.40;99.90
48454;DHT22;34261;55.678;12.464;2022-08-03T01:37:49;19.40;99.90
48454;DHT22;34261;55.678;12.464;2022-08-03T01:40:16;19.40;99.90
48454;DHT22;34261;55.678;12.464;2022-08-03T01:42:44;19.40;99.90
48454;DHT22;34261;55.678;12.464;2022-08-03T01:45:12;19.30;99.90
48454;DHT22;34261;55.678;12.464;2022-08-03T01:47:40;19.30;99.90
48454;DHT22;34261;55.678;12.464;2022-08-03T01:50:08;19.30;99.90
48454;DHT22;34261;55.678;12.464;2022-08-03T01:52:37;19.30;99.90
48454;DHT22;34261;55.678;12.464;2022-08-03T01:55:04;19.30;99.90
48454;DHT22;34261;55.678;12.464;2022-08-03T01:57:30;19.30;99.90
48454;DHT22;34261;55.678;12.464;2022-08-03T01:59:56;19.30;99.90
48454;DHT22;34261;55.678;12.464;2022-08-03T02:02:24;19.30;99.90
48454;DHT22;34261;55.678;12.464;2022-08-03T02:04:51;19.20;99.90
48454;DHT22;34261;55.678;12.464;2022-08-03T02:07:18;19.10;99.90
48454;DHT22;34261;55.678;12.464;2022-08-03T02:09:48;19.20;99.90
48454;DHT22;34261;55.678;12.464;2022-08-03T02:12:15;19.20;99.90
48454;DHT22;34261;55.678;12.464;2022-08-03T02:14:42;19.20;99.90
48454;DHT22;34261;55.678;12.464;2022-08-03T02:17:09;19.20;99.90
48454;DHT22;34261;55.678;12.464;2022-08-03T02:19:35;19.20;99.90
48454;DHT22;34261;55.678;12.464;2022-08-03T02:22:04;19.10;99.90
48454;DHT22;34261;55.678;12.464;2022-08-03T02:24:30;19.10;99.90
48454;DHT22;34261;55.678;12.464;2022-08-03T02:26:57;19.10;99.90
48454;DHT22;34261;55.678;12.464;2022-08-03T02:29:26;19.10;99.90
48454;DHT22;34261;55.678;12.464;2022-08-03T02:31:57;19.10;99.90
48454;DHT22;34261;55.678;12.464;2022-08-03T02:34:26;19.00;99.90
48454;DHT22;34261;55.678;12.464;2022-08-03T02:36:52;19.10;99.90
48454;DHT22;34261;55.678;12.464;2022-08-03T02:39:21;19.10;99.90
48454;DHT22;34261;55.678;12.464;2022-08-03T02:41:51;19.10;99.90
48454;DHT22;34261;55.678;12.464;2022-08-03T02:44:22;19.10;99.90
48454;DHT22;34261;55.678;12.464;2022-08-03T02:46:53;19.10;99.90
48454;DHT22;34261;55.678;12.464;2022-08-03T02:49:20;19.10;99.90
48454;DHT22;34261;55.678;12.464;2022-08-03T02:51:46;19.20;99.90
48454;DHT22;34261;55.678;12.464;2022-08-03T02:54:16;19.20;99.90
48454;DHT22;34261;55.678;12.464;2022-08-03T02:56:44;19.20;99.90
48454;DHT22;34261;55.678;12.464;2022-08-03T02:59:11;19.20;99.90
48454;DHT22;34261;55.678;12.464;2022-08-03T03:01:38;19.20;99.90
48454;DHT22;34261;55.678;12.464;2022-08-03T03:04:04;19.30;99.90
48454;DHT22;34261;55.678;12.464;2022-08-03T03:06:30;19.30;99.90
48454;DHT22;34261;55.678;12.464;2022-08-03T03:08:57;19.30;99.90
48454;DHT22;34261;55.678;12.464;2022-08-03T03:11:24;19.40;99.90
48454;DHT22;34261;55.678;12.464;2022-08-03T03:13:50;19.40;99.90
48454;DHT22;34261;55.678;12.464;2022-08-03T03:16:17;19.50;99.90
48454;DHT22;34261;55.678;12.464;2022-08-03T03:18:44;19.50;99.90
48454;DHT22;34261;55.678;12.464;2022-08-03T03:21:11;19.60;99.90
48454;DHT22;34261;55.678;12.464;2022-08-03T03:23:38;19.50;99.90
48454;DHT22;34261;55.678;12.464;2022-08-03T03:26:05;19.50;99.90
48454;DHT22;34261;55.678;12.464;2022-08-03T03:28:31;19.50;99.90
48454;DHT22;34261;55.678;12.464;2022-08-03T03:30:57;19.60;99.90
48454;DHT22;34261;55.678;12.464;2022-08-03T03:33:23;19.60;99.90
48454;DHT22;34261;55.678;12.464;2022-08-03T03:35:50;19.60;99.90
48454;DHT22;34261;55.678;12.464;2022-08-03T03:38:16;19.70;99.90
48454;DHT22;34261;55.678;12.464;2022-08-03T03:40:43;19.80;99.90
48454;DHT22;34261;55.678;12.464;2022-08-03T03:43:12;19.80;99.90
48454;DHT22;34261;55.678;12.464;2022-08-03T03:45:40;19.80;99.90
48454;DHT22;34261;55.678;12.464;2022-08-03T03:48:06;19.90;99.90
48454;DHT22;34261;55.678;12.464;2022-08-03T03:50:33;19.90;99.90
48454;DHT22;34261;55.678;12.464;2022-08-03T03:53:01;20.00;99.90
48454;DHT22;34261;55.678;12.464;2022-08-03T03:55:27;20.00;99.90
48454;DHT22;34261;55.678;12.464;2022-08-03T03:57:53;20.00;99.90
48454;DHT22;34261;55.678;12.464;2022-08-03T04:00:21;20.00;99.90
48454;DHT22;34261;55.678;12.464;2022-08-03T04:02:47;20.00;99.90
48454;DHT22;34261;55.678;12.464;2022-08-03T04:05:14;20.00;99.90
48454;DHT22;34261;55.678;12.464;2022-08-03T04:08:02;20.10;99.90
48454;DHT22;34261;55.678;12.464;2022-08-03T04:11:21;20.10;99.90
48454;DHT22;34261;55.678;12.464;2022-08-03T04:13:59;20.10;99.90
48454;DHT22;34261;55.678;12.464;2022-08-03T04:16:31;20.20;99.90
48454;DHT22;34261;55.678;12.464;2022-08-03T04:19:09;20.20;99.90
48454;DHT22;34261;55.678;12.464;2022-08-03T04:21:41;20.20;99.90
48454;DHT22;34261;55.678;12.464;2022-08-03T04:24:08;20.30;99.90
48454;DHT22;34261;55.678;12.464;2022-08-03T04:26:39;20.40;99.90
48454;DHT22;34261;55.678;12.464;2022-08-03T04:29:07;20.40;99.90
48454;DHT22;34261;55.678;12.464;2022-08-03T04:31:34;20.40;99.90
48454;DHT22;34261;55.678;12.464;2022-08-03T04:34:02;20.50;99.90
48454;DHT22;34261;55.678;12.464;2022-08-03T04:36:34;20.50;99.90
48454;DHT22;34261;55.678;12.464;2022-08-03T04:39:07;20.50;99.90
48454;DHT22;34261;55.678;12.464;2022-08-03T04:41:35;20.60;99.90
48454;DHT22;34261;55.678;12.464;2022-08-03T04:44:04;20.70;99.90
48454;DHT22;34261;55.678;12.464;2022-08-03T04:46:36;20.70;99.90
48454;DHT22;34261;55.678;12.464;2022-08-03T04:49:05;20.80;99.90
48454;DHT22;34261;55.678;12.464;2022-08-03T04:51:32;20.80;99.90
48454;DHT22;34261;55.678;12.464;2022-08-03T04:53:59;20.90;99.90
48454;DHT22;34261;55.678;12.464;2022-08-03T04:56:26;20.90;99.90
48454;DHT22;34261;55.678;12.464;2022-08-03T04:58:54;20.90;99.40
48454;DHT22;34261;55.678;12.464;2022-08-03T05:01:22;21.00;99.30
48454;DHT22;34261;55.678;12.464;2022-08-03T05:03:53;21.00;99.10
48454;DHT22;34261;55.678;12.464;2022-08-03T05:06:23;21.10;99.20
48454;DHT22;34261;55.678;12.464;2022-08-03T05:08:51;21.00;99.30
48454;DHT22;34261;55.678;12.464;2022-08-03T05:11:18;21.10;99.00
48454;DHT22;34261;55.678;12.464;2022-08-03T05:13:55;21.10;98.90
48454;DHT22;34261;55.678;12.464;2022-08-03T05:16:23;21.20;98.90
48454;DHT22;34261;55.678;12.464;2022-08-03T05:18:52;21.20;98.40
48454;DHT22;34261;55.678;12.464;2022-08-03T05:21:21;21.20;98.50
48454;DHT22;34261;55.678;12.464;2022-08-03T05:23:48;21.30;98.90
48454;DHT22;34261;55.678;12.464;2022-08-03T05:26:16;21.30;98.40
48454;DHT22;34261;55.678;12.464;2022-08-03T05:28:54;21.40;98.50
48454;DHT22;34261;55.678;12.464;2022-08-03T05:31:27;21.40;98.40
48454;DHT22;34261;55.678;12.464;2022-08-03T05:34:05;21.40;98.40
48454;DHT22;34261;55.678;12.464;2022-08-03T05:36:33;21.50;98.40
48454;DHT22;34261;55.678;12.464;2022-08-03T05:39:14;21.50;98.20
48454;DHT22;34261;55.678;12.464;2022-08-03T05:41:44;21.60;98.40
48454;DHT22;34261;55.678;12.464;2022-08-03T05:44:15;21.60;98.30
48454;DHT22;34261;55.678;12.464;2022-08-03T05:46:47;21.60;98.40
48454;DHT22;34261;55.678;12.464;2022-08-03T05:49:19;21.70;98.50
48454;DHT22;34261;55.678;12.464;2022-08-03T06:04:48;21.90;98.40
48454;DHT22;34261;55.678;12.464;2022-08-03T06:07:47;22.00;97.80
48454;DHT22;34261;55.678;12.464;2022-08-03T06:10:20;22.10;97.60
48454;DHT22;34261;55.678;12.464;2022-08-03T06:13:22;22.30;97.60
48454;DHT22;34261;55.678;12.464;2022-08-03T06:16:13;22.40;97.20
48454;DHT22;34261;55.678;12.464;2022-08-03T06:19:04;22.40;97.10
48454;DHT22;34261;55.678;12.464;2022-08-03T06:22:15;22.30;96.90
48454;DHT22;34261;55.678;12.464;2022-08-03T07:56:11;24.60;95.30
48454;DHT22;34261;55.678;12.464;2022-08-03T07:59:11;24.60;94.80
48454;DHT22;34261;55.678;12.464;2022-08-03T08:02:08;24.50;95.20
48454;DHT22;34261;55.678;12.464;2022-08-03T08:05:18;24.60;95.10
48454;DHT22;34261;55.678;12.464;2022-08-03T08:08:27;24.80;95.30
48454;DHT22;34261;55.678;12.464;2022-08-03T08:11:22;24.90;95.10
48454;DHT22;34261;55.678;12.464;2022-08-03T08:14:04;24.90;95.30
48454;DHT22;34261;55.678;12.464;2022-08-03T08:17:12;24.80;94.80
48454;DHT22;34261;55.678;12.464;2022-08-03T08:20:02;25.00;94.90
48454;DHT22;34261;55.678;12.464;2022-08-03T09:27:43;25.80;94.70
48454;DHT22;34261;55.678;12.464;2022-08-03T09:30:17;26.20;94.30
48454;DHT22;34261;55.678;12.464;2022-08-03T09:33:08;26.70;93.90
48454;DHT22;34261;55.678;12.464;2022-08-03T09:35:47;27.20;93.40
48454;DHT22;34261;55.678;12.464;2022-08-03T09:38:22;27.50;93.50
48454;DHT22;34261;55.678;12.464;2022-08-03T09:40:52;27.90;93.00
48454;DHT22;34261;55.678;12.464;2022-08-03T09:43:24;27.90;92.70
48454;DHT22;34261;55.678;12.464;2022-08-03T09:46:02;28.00;92.50
48454;DHT22;34261;55.678;12.464;2022-08-03T09:48:39;28.10;92.10
48454;DHT22;34261;55.678;12.464;2022-08-03T09:51:10;28.30;92.10
48454;DHT22;34261;55.678;12.464;2022-08-03T09:53:44;28.60;92.70
48454;DHT22;34261;55.678;12.464;2022-08-03T09:56:11;28.90;91.80
48454;DHT22;34261;55.678;12.464;2022-08-03T09:58:45;28.90;91.50
48454;DHT22;34261;55.678;12.464;2022-08-03T10:01:13;29.10;91.50
48454;DHT22;34261;55.678;12.464;2022-08-03T10:03:39;29.30;91.30
48454;DHT22;34261;55.678;12.464;2022-08-03T10:06:19;29.60;91.10
48454;DHT22;34261;55.678;12.464;2022-08-03T10:09:14;29.80;90.20
48454;DHT22;34261;55.678;12.464;2022-08-03T10:11:43;29.80;90.60
48454;DHT22;34261;55.678;12.464;2022-08-03T10:14:12;29.80;90.50
48454;DHT22;34261;55.678;12.464;2022-08-03T10:17:00;30.00;90.40
48454;DHT22;34261;55.678;12.464;2022-08-03T10:19:37;30.10;89.90
48454;DHT22;34261;55.678;12.464;2022-08-03T10:22:09;30.10;90.10
48454;DHT22;34261;55.678;12.464;2022-08-03T10:24:38;30.00;90.20
48454;DHT22;34261;55.678;12.464;2022-08-03T10:27:06;30.00;90.60
48454;DHT22;34261;55.678;12.464;2022-08-03T10:29:44;30.20;90.10
48454;DHT22;34261;55.678;12.464;2022-08-03T10:32:21;30.40;90.20
48454;DHT22;34261;55.678;12.464;2022-08-03T10:34:52;30.60;90.00
48454;DHT22;34261;55.678;12.464;2022-08-03T10:37:22;30.50;89.80
48454;DHT22;34261;55.678;12.464;2022-08-03T10:39:53;30.50;90.00
48454;DHT22;34261;55.678;12.464;2022-08-03T10:42:23;30.20;89.70
48454;DHT22;34261;55.678;12.464;2022-08-03T10:44:58;30.30;89.80
48454;DHT22;34261;55.678;12.464;2022-08-03T10:47:25;30.30;90.80
48454;DHT22;34261;55.678;12.464;2022-08-03T10:49:51;30.40;89.70
48454;DHT22;34261;55.678;12.464;2022-08-03T10:52:17;30.30;90.20
48454;DHT22;34261;55.678;12.464;2022-08-03T10:54:45;30.50;90.00
48454;DHT22;34261;55.678;12.464;2022-08-03T10:57:46;30.70;90.00
48454;DHT22;34261;55.678;12.464;2022-08-03T11:00:24;30.80;90.10
48454;DHT22;34261;55.678;12.464;2022-08-03T11:03:18;30.80;89.50
48454;DHT22;34261;55.678;12.464;2022-08-03T11:05:47;31.20;89.40
48454;DHT22;34261;55.678;12.464;2022-08-03T11:08:22;31.40;89.30
48454;DHT22;34261;55.678;12.464;2022-08-03T11:10:50;31.30;89.20
48454;DHT22;34261;55.678;12.464;2022-08-03T11:13:21;31.30;88.10
48454;DHT22;34261;55.678;12.464;2022-08-03T11:15:51;31.70;89.20
48454;DHT22;34261;55.678;12.464;2022-08-03T11:18:22;31.90;87.50
48454;DHT22;34261;55.678;12.464;2022-08-03T11:20:54;31.70;86.60
48454;DHT22;34261;55.678;12.464;2022-08-03T11:23:43;31.70;87.70
48454;DHT22;34261;55.678;12.464;2022-08-03T11:26:19;32.10;87.00
48454;DHT22;34261;55.678;12.464;2022-08-03T11:28:47;32.50;86.90
48454;DHT22;34261;55.678;12.464;2022-08-03T11:34:06;32.40;85.00
48454;DHT22;34261;55.678;12.464;2022-08-03T11:39:38;32.40;84.20
48454;DHT22;34261;55.678;12.464;2022-08-03T11:44:56;32.60;83.70
48454;DHT22;34261;55.678;12.464;2022-08-03T11:47:24;32.60;83.80
48454;DHT22;34261;55.678;12.464;2022-08-03T11:49:56;32.40;84.70
48454;DHT22;34261;55.678;12.464;2022-08-03T11:52:25;32.70;83.50
48454;DHT22;34261;55.678;12.464;2022-08-03T11:54:52;32.80;84.00
48454;DHT22;34261;55.678;12.464;2022-08-03T11:57:34;32.90;82.00
48454;DHT22;34261;55.678;12.464;2022-08-03T12:00:20;32.20;83.60
48454;DHT22;34261;55.678;12.464;2022-08-03T12:03:09;32.70;82.30
48454;DHT22;34261;55.678;12.464;2022-08-03T12:05:45;32.40;81.60
48454;DHT22;34261;55.678;12.464;2022-08-03T12:08:17;32.30;82.70
48454;DHT22;34261;55.678;12.464;2022-08-03T12:10:45;32.50;82.30
48454;DHT22;34261;55.678;12.464;2022-08-03T12:13:12;32.10;81.90
48454;DHT22;34261;55.678;12.464;2022-08-03T12:15:40;32.50;82.60
48454;DHT22;34261;55.678;12.464;2022-08-03T12:18:17;32.10;81.70
48454;DHT22;34261;55.678;12.464;2022-08-03T12:20:44;32.40;82.00
48454;DHT22;34261;55.678;12.464;2022-08-03T12:23:15;32.20;81.70
48454;DHT22;34261;55.678;12.464;2022-08-03T12:25:43;32.20;81.60
48454;DHT22;34261;55.678;12.464;2022-08-03T12:30:38;32.70;81.10
48454;DHT22;34261;55.678;12.464;2022-08-03T12:33:25;32.70;81.60
48454;DHT22;34261;55.678;12.464;2022-08-03T12:36:07;33.00;80.40
48454;DHT22;34261;55.678;12.464;2022-08-03T12:38:37;33.00;80.10
48454;DHT22;34261;55.678;12.464;2022-08-03T12:41:09;33.00;80.70
48454;DHT22;34261;55.678;12.464;2022-08-03T12:43:48;33.20;81.50
48454;DHT22;34261;55.678;12.464;2022-08-03T12:46:16;33.50;80.60
48454;DHT22;34261;55.678;12.464;2022-08-03T12:49:10;33.20;79.60
48454;DHT22;34261;55.678;12.464;2022-08-03T12:54:18;32.60;80.50
48454;DHT22;34261;55.678;12.464;2022-08-03T12:57:06;32.30;80.90
48454;DHT22;34261;55.678;12.464;2022-08-03T12:59:37;32.30;81.30
48454;DHT22;34261;55.678;12.464;2022-08-03T13:04:42;32.90;81.70
48454;DHT22;34261;55.678;12.464;2022-08-03T13:07:13;32.90;79.50
48454;DHT22;34261;55.678;12.464;2022-08-03T13:09:48;33.00;80.80
48454;DHT22;34261;55.678;12.464;2022-08-03T13:12:48;32.60;80.20
48454;DHT22;34261;55.678;12.464;2022-08-03T13:15:16;32.50;80.40
48454;DHT22;34261;55.678;12.464;2022-08-03T13:17:46;32.90;80.10
48454;DHT22;34261;55.678;12.464;2022-08-03T13:20:12;33.20;80.00
48454;DHT22;34261;55.678;12.464;2022-08-03T13:22:40;32.70;80.40
48454;DHT22;34261;55.678;12.464;2022-08-03T13:25:09;33.30;80.70
48454;DHT22;34261;55.678;12.464;2022-08-03T13:27:43;33.70;79.10
48454;DHT22;34261;55.678;12.464;2022-08-03T13:30:17;33.50;79.70
48454;DHT22;34261;55.678;12.464;2022-08-03T13:32:45;33.50;79.90
48454;DHT22;34261;55.678;12.464;2022-08-03T13:35:16;33.50;80.30
48454;DHT22;34261;55.678;12.464;2022-08-03T13:37:46;33.30;79.30
48454;DHT22;34261;55.678;12.464;2022-08-03T13:40:14;33.50;80.10
48454;DHT22;34261;55.678;12.464;2022-08-03T13:42:44;33.20;79.40
48454;DHT22;34261;55.678;12.464;2022-08-03T13:45:14;32.60;80.00
48454;DHT22;34261;55.678;12.464;2022-08-03T13:47:46;32.50;80.60
48454;DHT22;34261;55.678;12.464;2022-08-03T13:50:17;32.30;81.40
48454;DHT22;34261;55.678;12.464;2022-08-03T13:52:54;32.50;80.80
48454;DHT22;34261;55.678;12.464;2022-08-03T13:55:23;32.40;80.90
48454;DHT22;34261;55.678;12.464;2022-08-03T13:57:52;32.80;81.50
48454;DHT22;34261;55.678;12.464;2022-08-03T14:00:22;33.40;80.70
48454;DHT22;34261;55.678;12.464;2022-08-03T14:02:55;33.50;81.00
48454;DHT22;34261;55.678;12.464;2022-08-03T14:05:23;33.30;79.80
48454;DHT22;34261;55.678;12.464;2022-08-03T14:07:55;33.20;80.20
48454;DHT22;34261;55.678;12.464;2022-08-03T14:10:28;32.70;80.30
48454;DHT22;34261;55.678;12.464;2022-08-03T14:12:58;32.40;81.10
48454;DHT22;34261;55.678;12.464;2022-08-03T14:16:00;32.40;81.30
48454;DHT22;34261;55.678;12.464;2022-08-03T14:47:50;31.40;83.20
48454;DHT22;34261;55.678;12.464;2022-08-03T14:50:20;31.70;83.90
48454;DHT22;34261;55.678;12.464;2022-08-03T14:52:55;31.80;82.60
48454;DHT22;34261;55.678;12.464;2022-08-03T14:56:22;32.10;82.60
48454;DHT22;34261;55.678;12.464;2022-08-03T14:59:40;32.20;82.40
48454;DHT22;34261;55.678;12.464;2022-08-03T15:02:32;32.30;82.90
48454;DHT22;34261;55.678;12.464;2022-08-03T15:05:19;32.70;82.20
48454;DHT22;34261;55.678;12.464;2022-08-03T15:08:29;32.80;82.40
48454;DHT22;34261;55.678;12.464;2022-08-03T15:11:41;32.90;82.40
48454;DHT22;34261;55.678;12.464;2022-08-03T15:14:54;33.00;81.70
48454;DHT22;34261;55.678;12.464;2022-08-03T15:18:03;32.80;82.50
48454;DHT22;34261;55.678;12.464;2022-08-03T15:21:04;32.70;81.70
48454;DHT22;34261;55.678;12.464;2022-08-03T15:23:39;32.70;81.70
48454;DHT22;34261;55.678;12.464;2022-08-03T15:26:35;32.90;80.70
48454;DHT22;34261;55.678;12.464;2022-08-03T15:29:26;32.70;79.90
48454;DHT22;34261;55.678;12.464;2022-08-03T15:32:01;32.70;80.70
48454;DHT22;34261;55.678;12.464;2022-08-03T15:34:51;32.50;81.00
48454;DHT22;34261;55.678;12.464;2022-08-03T15:37:21;32.60;80.90
48454;DHT22;34261;55.678;12.464;2022-08-03T15:39:55;32.60;81.20
48454;DHT22;34261;55.678;12.464;2022-08-03T15:42:28;32.50;81.70
48454;DHT22;34261;55.678;12.464;2022-08-03T15:45:23;32.20;82.00
48454;DHT22;34261;55.678;12.464;2022-08-03T15:47:57;31.90;81.20
48454;DHT22;34261;55.678;12.464;2022-08-03T15:50:26;31.80;82.00
48454;DHT22;34261;55.678;12.464;2022-08-03T15:52:55;31.70;82.40
48454;DHT22;34261;55.678;12.464;2022-08-03T15:55:49;31.70;83.80
48454;DHT22;34261;55.678;12.464;2022-08-03T15:58:26;31.50;83.20
48454;DHT22;34261;55.678;12.464;2022-08-03T16:01:10;31.50;83.90
48454;DHT22;34261;55.678;12.464;2022-08-03T16:03:36;31.30;83.70
48454;DHT22;34261;55.678;12.464;2022-08-03T16:06:07;31.20;83.70
48454;DHT22;34261;55.678;12.464;2022-08-03T16:08:33;31.10;84.10
48454;DHT22;34261;55.678;12.464;2022-08-03T16:11:02;31.00;84.10
48454;DHT22;34261;55.678;12.464;2022-08-03T16:13:30;30.80;84.80
48454;DHT22;34261;55.678;12.464;2022-08-03T16:16:02;30.90;85.30
48454;DHT22;34261;55.678;12.464;2022-08-03T16:18:48;30.80;84.50
48454;DHT22;34261;55.678;12.464;2022-08-03T16:21:14;30.50;85.00
48454;DHT22;34261;55.678;12.464;2022-08-03T16:23:42;30.30;86.30
48454;DHT22;34261;55.678;12.464;2022-08-03T16:26:12;30.20;86.60
48454;DHT22;34261;55.678;12.464;2022-08-03T16:28:47;30.10;87.00
48454;DHT22;34261;55.678;12.464;2022-08-03T16:31:17;30.00;87.20
48454;DHT22;34261;55.678;12.464;2022-08-03T16:33:44;30.10;87.40
48454;DHT22;34261;55.678;12.464;2022-08-03T16:36:19;30.10;87.20
48454;DHT22;34261;55.678;12.464;2022-08-03T16:38:51;30.10;87.40
48454;DHT22;34261;55.678;12.464;2022-08-03T16:41:26;30.10;87.40
48454;DHT22;34261;55.678;12.464;2022-08-03T16:43:52;29.90;88.00
48454;DHT22;34261;55.678;12.464;2022-08-03T16:46:19;29.60;88.40
48454;DHT22;34261;55.678;12.464;2022-08-03T16:48:45;29.60;89.30
48454;DHT22;34261;55.678;12.464;2022-08-03T16:51:11;29.40;88.90
48454;DHT22;34261;55.678;12.464;2022-08-03T16:53:37;29.40;90.00
48454;DHT22;34261;55.678;12.464;2022-08-03T16:56:03;29.40;89.30
48454;DHT22;34261;55.678;12.464;2022-08-03T16:58:38;29.50;89.70
48454;DHT22;34261;55.678;12.464;2022-08-03T17:01:07;29.30;89.70
48454;DHT22;34261;55.678;12.464;2022-08-03T17:03:35;29.20;89.30
48454;DHT22;34261;55.678;12.464;2022-08-03T17:06:03;29.10;89.30
48454;DHT22;34261;55.678;12.464;2022-08-03T17:08:32;29.10;89.10
48454;DHT22;34261;55.678;12.464;2022-08-03T17:11:02;29.00;89.20
48454;DHT22;34261;55.678;12.464;2022-08-03T17:13:31;29.00;89.60
48454;DHT22;34261;55.678;12.464;2022-08-03T17:16:00;29.10;89.90
48454;DHT22;34261;55.678;12.464;2022-08-03T17:18:51;29.20;89.70
48454;DHT22;34261;55.678;12.464;2022-08-03T17:21:24;29.20;89.90
48454;DHT22;34261;55.678;12.464;2022-08-03T17:24:23;29.10;89.60
48454;DHT22;34261;55.678;12.464;2022-08-03T17:27:09;29.30;90.10
48454;DHT22;34261;55.678;12.464;2022-08-03T17:29:40;29.30;90.00
48454;DHT22;34261;55.678;12.464;2022-08-03T17:35:54;29.30;89.70
48454;DHT22;34261;55.678;12.464;2022-08-03T17:38:41;29.10;89.80
48454;DHT22;34261;55.678;12.464;2022-08-03T17:41:13;29.00;90.00
48454;DHT22;34261;55.678;12.464;2022-08-03T17:43:53;28.90;90.30
48454;DHT22;34261;55.678;12.464;2022-08-03T17:46:31;28.90;90.50
48454;DHT22;34261;55.678;12.464;2022-08-03T17:49:02;28.80;90.40
48454;DHT22;34261;55.678;12.464;2022-08-03T17:51:48;28.80;90.50
48454;DHT22;34261;55.678;12.464;2022-08-03T17:54:23;28.80;90.70
48454;DHT22;34261;55.678;12.464;2022-08-03T17:57:25;28.80;90.60
48454;DHT22;34261;55.678;12.464;2022-08-03T18:00:11;28.70;90.80
48454;DHT22;34261;55.678;12.464;2022-08-03T18:03:26;28.70;90.80
48454;DHT22;34261;55.678;12.464;2022-08-03T18:05:59;28.50;91.10
48454;DHT22;34261;55.678;12.464;2022-08-03T18:09:12;28.40;91.30
48454;DHT22;34261;55.678;12.464;2022-08-03T18:11:22;28.40;91.40
48454;DHT22;34261;55.678;12.464;2022-08-03T18:17:28;28.40;91.60
48454;DHT22;34261;55.678;12.464;2022-08-03T18:20:11;28.30;91.70
48454;DHT22;34261;55.678;12.464;2022-08-03T18:22:40;28.20;91.80
48454;DHT22;34261;55.678;12.464;2022-08-03T18:25:25;28.20;92.10
48454;DHT22;34261;55.678;12.464;2022-08-03T18:28:00;28.10;92.10
48454;DHT22;34261;55.678;12.464;2022-08-03T18:30:41;28.20;92.10
48454;DHT22;34261;55.678;12.464;2022-08-03T18:33:08;28.10;92.20
48454;DHT22;34261;55.678;12.464;2022-08-03T18:35:37;28.10;92.20
48454;DHT22;34261;55.678;12.464;2022-08-03T18:38:15;28.10;92.30
48454;DHT22;34261;55.678;12.464;2022-08-03T18:40:47;28.00;92.30
48454;DHT22;34261;55.678;12.464;2022-08-03T18:43:14;28.00;92.40
48454;DHT22;34261;55.678;12.464;2022-08-03T18:46:02;27.90;92.50
48454;DHT22;34261;55.678;12.464;2022-08-03T18:48:47;27.90;92.50
48454;DHT22;34261;55.678;12.464;2022-08-03T18:51:22;27.80;92.70
48454;DHT22;34261;55.678;12.464;2022-08-03T18:54:20;27.70;92.70
48454;DHT22;34261;55.678;12.464;2022-08-03T18:56:56;27.70;92.70
48454;DHT22;34261;55.678;12.464;2022-08-03T18:59:25;27.60;92.90
48454;DHT22;34261;55.678;12.464;2022-08-03T19:02:24;27.60;92.90
48454;DHT22;34261;55.678;12.464;2022-08-03T19:05:08;27.60;93.00
48454;DHT22;34261;55.678;12.464;2022-08-03T19:07:36;27.50;93.30
48454;DHT22;34261;55.678;12.464;2022-08-03T19:10:11;27.50;93.10
48454;DHT22;34261;55.678;12.464;2022-08-03T19:12:53;27.50;93.30
48454;DHT22;34261;55.678;12.464;2022-08-03T19:15:26;27.40;93.50
48454;DHT22;34261;55.678;12.464;2022-08-03T19:17:55;27.20;93.60
48454;DHT22;34261;55.678;12.464;2022-08-03T19:20:27;27.20;93.60
48454;DHT22;34261;55.678;12.464;2022-08-03T19:22:59;27.10;93.80
48454;DHT22;34261;55.678;12.464;2022-08-03T19:25:26;27.10;93.90
48454;DHT22;34261;55.678;12.464;2022-08-03T19:27:54;27.10;94.00
48454;DHT22;34261;55.678;12.464;2022-08-03T19:30:20;27.00;94.10
48454;DHT22;34261;55.678;12.464;2022-08-03T19:33:07;26.90;94.10
48454;DHT22;34261;55.678;12.464;2022-08-03T19:35:33;26.80;94.30
48454;DHT22;34261;55.678;12.464;2022-08-03T19:38:03;26.80;94.30
48454;DHT22;34261;55.678;12.464;2022-08-03T19:40:31;26.80;94.40
48454;DHT22;34261;55.678;12.464;2022-08-03T19:43:08;26.80;94.40
48454;DHT22;34261;55.678;12.464;2022-08-03T19:45:37;26.70;94.50
48454;DHT22;34261;55.678;12.464;2022-08-03T19:48:11;26.60;94.70
48454;DHT22;34261;55.678;12.464;2022-08-03T19:50:44;26.60;94.90
48454;DHT22;34261;55.678;12.464;2022-08-03T19:53:12;26.50;95.00